sensor_id;sensor_type;location;lat;lon;timestamp;temperature;humidity
57282;DHT22;43129;52.628;10.098;2023-05-20T00:01:17;12.50;59.70
57282;DHT22;43129;52.628;10.098;2023-05-20T00:03:43;12.50;59.80
57282;DHT22;43129;52.628;10.098;2023-05-20T00:06:11;12.40;59.90
57282;DHT22;43129;52.628;10.098;2023-05-20T00:08:36;12.40;60.00
57282;DHT22;43129;52.628;10.098;2023-05-20T00:11:02;12.40;60.10
57282;DHT22;43129;52.628;10.098;2023-05-20T00:13:28;12.40;59.90
57282;DHT22;43129;52.628;10.098;2023-05-20T00:15:53;12.30;60.00
57282;DHT22;43129;52.628;10.098;2023-05-20T00:18:21;12.30;60.00
57282;DHT22;43129;52.628;10.098;2023-05-20T00:20:47;12.20;59.90
57282;DHT22;43129;52.628;10.098;2023-05-20T00:23:13;12.20;59.90
57282;DHT22;43129;52.628;10.098;2023-05-20T00:25:38;12.10;60.00
57282;DHT22;43129;52.628;10.098;2023-05-20T00:28:05;12.10;60.30
57282;DHT22;43129;52.628;10.098;2023-05-20T00:30:30;12.10;60.40
57282;DHT22;43129;52.628;10.098;2023-05-20T00:32:56;12.00;60.60
57282;DHT22;43129;52.628;10.098;2023-05-20T00:35:22;12.00;60.80
57282;DHT22;43129;52.628;10.098;2023-05-20T00:37:47;12.00;60.80
57282;DHT22;43129;52.628;10.098;2023-05-20T00:40:16;11.90;60.90
57282;DHT22;43129;52.628;10.098;2023-05-20T00:42:41;11.90;61.00
57282;DHT22;43129;52.628;10.098;2023-05-20T00:45:10;11.80;61.00
57282;DHT22;43129;52.628;10.098;2023-05-20T00:47:37;11.90;60.70
57282;DHT22;43129;52.628;10.098;2023-05-20T00:50:03;11.80;60.70
57282;DHT22;43129;52.628;10.098;2023-05-20T00:52:32;11.80;60.80
57282;DHT22;43129;52.628;10.098;2023-05-20T00:55:01;11.80;60.90
57282;DHT22;43129;52.628;10.098;2023-05-20T00:57:27;11.80;60.90
57282;DHT22;43129;52.628;10.098;2023-05-20T00:59:58;11.70;61.10
57282;DHT22;43129;52.628;10.098;2023-05-20T01:02:26;11.70;61.30
57282;DHT22;43129;52.628;10.098;2023-05-20T01:04:52;11.70;61.40
57282;DHT22;43129;52.628;10.098;2023-05-20T01:07:20;11.70;61.30
57282;DHT22;43129;52.628;10.098;2023-05-20T01:09:46;11.70;61.30
57282;DHT22;43129;52.628;10.098;2023-05-20T01:12:20;11.70;62.10
57282;DHT22;43129;52.628;10.098;2023-05-20T01:14:55;11.70;61.30
57282;DHT22;43129;52.628;10.098;2023-05-20T01:17:25;11.70;61.50
57282;DHT22;43129;52.628;10.098;2023-05-20T01:19:55;11.70;61.50
57282;DHT22;43129;52.628;10.098;2023-05-20T01:22:27;11.70;61.40
57282;DHT22;43129;52.628;10.098;2023-05-20T01:24:55;11.70;61.30
57282;DHT22;43129;52.628;10.098;2023-05-20T01:27:23;11.70;61.20
57282;DHT22;43129;52.628;10.098;2023-05-20T01:29:51;11.70;61.10
57282;DHT22;43129;52.628;10.098;2023-05-20T01:34:50;11.70;61.30
57282;DHT22;43129;52.628;10.098;2023-05-20T01:37:21;11.70;61.40
57282;DHT22;43129;52.628;10.098;2023-05-20T01:39:49;11.70;61.50
57282;DHT22;43129;52.628;10.098;2023-05-20T01:42:16;11.70;61.60
57282;DHT22;43129;52.628;10.098;2023-05-20T01:44:46;11.70;61.90
57282;DHT22;43129;52.628;10.098;2023-05-20T01:47:14;11.60;62.00
57282;DHT22;43129;52.628;10.098;2023-05-20T01:49:40;11.60;62.20
57282;DHT22;43129;52.628;10.098;2023-05-20T01:52:09;11.60;62.40
57282;DHT22;43129;52.628;10.098;2023-05-20T01:54:37;11.50;62.60
57282;DHT22;43129;52.628;10.098;2023-05-20T01:57:06;11.50;62.70
57282;DHT22;43129;52.628;10.098;2023-05-20T01:59:34;11.40;62.90
57282;DHT22;43129;52.628;10.098;2023-05-20T02:01:59;11.40;63.00
57282;DHT22;43129;52.628;10.098;2023-05-20T02:04:25;11.40;63.20
57282;DHT22;43129;52.628;10.098;2023-05-20T02:06:50;11.40;63.60
57282;DHT22;43129;52.628;10.098;2023-05-20T02:09:17;11.40;63.70
57282;DHT22;43129;52.628;10.098;2023-05-20T02:11:47;11.30;63.80
57282;DHT22;43129;52.628;10.098;2023-05-20T02:14:13;11.30;64.10
57282;DHT22;43129;52.628;10.098;2023-05-20T02:16:38;11.20;64.40
57282;DHT22;43129;52.628;10.098;2023-05-20T02:19:06;11.20;64.50
57282;DHT22;43129;52.628;10.098;2023-05-20T02:21:40;11.20;64.60
57282;DHT22;43129;52.628;10.098;2023-05-20T02:24:06;11.20;64.70
57282;DHT22;43129;52.628;10.098;2023-05-20T02:26:32;11.10;65.00
57282;DHT22;43129;52.628;10.098;2023-05-20T02:28:58;11.10;65.50
57282;DHT22;43129;52.628;10.098;2023-05-20T02:31:29;11.00;65.30
57282;DHT22;43129;52.628;10.098;2023-05-20T02:33:59;11.00;65.40
57282;DHT22;43129;52.628;10.098;2023-05-20T02:36:25;11.00;65.60
57282;DHT22;43129;52.628;10.098;2023-05-20T02:38:55;10.90;65.50
57282;DHT22;43129;52.628;10.098;2023-05-20T02:41:21;10.90;65.60
57282;DHT22;43129;52.628;10.098;2023-05-20T02:43:47;10.90;65.90
57282;DHT22;43129;52.628;10.098;2023-05-20T02:46:15;10.90;66.20
57282;DHT22;43129;52.628;10.098;2023-05-20T02:48:45;10.90;66.30
57282;DHT22;43129;52.628;10.098;2023-05-20T02:51:11;10.80;66.40
57282;DHT22;43129;52.628;10.098;2023-05-20T02:53:41;10.80;66.60
57282;DHT22;43129;52.628;10.098;2023-05-20T02:56:09;10.70;66.80
57282;DHT22;43129;52.628;10.098;2023-05-20T02:58:39;10.70;67.00
57282;DHT22;43129;52.628;10.098;2023-05-20T03:01:07;10.70;67.20
57282;DHT22;43129;52.628;10.098;2023-05-20T03:03:33;10.70;67.50
57282;DHT22;43129;52.628;10.098;2023-05-20T03:06:05;10.70;67.70
57282;DHT22;43129;52.628;10.098;2023-05-20T03:08:33;10.70;67.80
57282;DHT22;43129;52.628;10.098;2023-05-20T03:11:01;10.60;68.00
57282;DHT22;43129;52.628;10.098;2023-05-20T03:13:29;10.60;68.20
57282;DHT22;43129;52.628;10.098;2023-05-20T03:15:55;10.60;68.40
57282;DHT22;43129;52.628;10.098;2023-05-20T03:18:25;10.60;68.40
57282;DHT22;43129;52.628;10.098;2023-05-20T03:20:53;10.60;68.50
57282;DHT22;43129;52.628;10.098;2023-05-20T03:23:21;10.60;68.40
57282;DHT22;43129;52.628;10.098;2023-05-20T03:25:47;10.60;68.50
57282;DHT22;43129;52.628;10.098;2023-05-20T03:28:13;10.60;68.50
57282;DHT22;43129;52.628;10.098;2023-05-20T03:30:41;10.60;68.40
57282;DHT22;43129;52.628;10.098;2023-05-20T03:33:07;10.60;68.60
57282;DHT22;43129;52.628;10.098;2023-05-20T03:35:33;10.60;69.60
57282;DHT22;43129;52.628;10.098;2023-05-20T03:37:58;10.60;68.80
57282;DHT22;43129;52.628;10.098;2023-05-20T03:40:30;10.60;69.00
57282;DHT22;43129;52.628;10.098;2023-05-20T03:42:56;10.60;69.10
57282;DHT22;43129;52.628;10.098;2023-05-20T03:45:24;10.60;69.20
57282;DHT22;43129;52.628;10.098;2023-05-20T03:47:52;10.60;69.30
57282;DHT22;43129;52.628;10.098;2023-05-20T03:50:22;10.60;69.60
57282;DHT22;43129;52.628;10.098;2023-05-20T03:52:50;10.60;69.70
57282;DHT22;43129;52.628;10.098;2023-05-20T03:55:16;10.70;69.70
57282;DHT22;43129;52.628;10.098;2023-05-20T03:57:44;10.70;69.70
57282;DHT22;43129;52.628;10.098;2023-05-20T04:00:18;10.70;69.60
57282;DHT22;43129;52.628;10.098;2023-05-20T04:02:46;10.70;69.50
57282;DHT22;43129;52.628;10.098;2023-05-20T04:05:12;10.80;69.50
57282;DHT22;43129;52.628;10.098;2023-05-20T04:07:40;10.80;69.40
57282;DHT22;43129;52.628;10.098;2023-05-20T04:10:09;10.80;69.40
57282;DHT22;43129;52.628;10.098;2023-05-20T04:12:37;10.80;69.30
57282;DHT22;43129;52.628;10.098;2023-05-20T04:15:05;10.80;69.40
57282;DHT22;43129;52.628;10.098;2023-05-20T04:17:33;10.80;69.40
57282;DHT22;43129;52.628;10.098;2023-05-20T04:20:05;10.90;69.10
57282;DHT22;43129;52.628;10.098;2023-05-20T04:22:34;10.90;69.00
57282;DHT22;43129;52.628;10.098;2023-05-20T04:25:00;10.90;69.10
57282;DHT22;43129;52.628;10.098;2023-05-20T04:27:29;11.00;69.10
57282;DHT22;43129;52.628;10.098;2023-05-20T04:29:58;11.00;69.00
57282;DHT22;43129;52.628;10.098;2023-05-20T04:32:26;11.00;70.00
57282;DHT22;43129;52.628;10.098;2023-05-20T04:34:52;11.10;69.00
57282;DHT22;43129;52.628;10.098;2023-05-20T04:37:22;11.20;68.90
57282;DHT22;43129;52.628;10.098;2023-05-20T04:39:52;11.30;68.40
57282;DHT22;43129;52.628;10.098;2023-05-20T04:42:18;11.30;68.20
57282;DHT22;43129;52.628;10.098;2023-05-20T04:44:49;11.30;67.80
57282;DHT22;43129;52.628;10.098;2023-05-20T04:47:16;11.40;67.70
57282;DHT22;43129;52.628;10.098;2023-05-20T04:49:45;11.30;67.60
57282;DHT22;43129;52.628;10.098;2023-05-20T04:52:10;11.30;67.50
57282;DHT22;43129;52.628;10.098;2023-05-20T04:54:36;11.30;67.70
57282;DHT22;43129;52.628;10.098;2023-05-20T04:57:02;11.30;67.80
57282;DHT22;43129;52.628;10.098;2023-05-20T04:59:27;11.40;67.90
57282;DHT22;43129;52.628;10.098;2023-05-20T05:01:57;11.40;68.00
57282;DHT22;43129;52.628;10.098;2023-05-20T05:04:23;11.60;68.00
57282;DHT22;43129;52.628;10.098;2023-05-20T05:06:49;11.60;67.60
57282;DHT22;43129;52.628;10.098;2023-05-20T05:09:14;11.70;67.70
57282;DHT22;43129;52.628;10.098;2023-05-20T05:11:42;11.70;67.40
57282;DHT22;43129;52.628;10.098;2023-05-20T05:14:08;11.90;67.20
57282;DHT22;43129;52.628;10.098;2023-05-20T05:16:34;11.90;66.90
57282;DHT22;43129;52.628;10.098;2023-05-20T05:18:59;11.90;66.90
57282;DHT22;43129;52.628;10.098;2023-05-20T05:21:25;12.00;66.80
57282;DHT22;43129;52.628;10.098;2023-05-20T05:23:50;12.10;66.70
57282;DHT22;43129;52.628;10.098;2023-05-20T05:26:16;12.10;67.00
57282;DHT22;43129;52.628;10.098;2023-05-20T05:28:42;12.20;66.90
57282;DHT22;43129;52.628;10.098;2023-05-20T05:31:10;12.20;66.90
57282;DHT22;43129;52.628;10.098;2023-05-20T05:33:37;12.30;67.00
57282;DHT22;43129;52.628;10.098;2023-05-20T05:36:03;12.40;67.20
57282;DHT22;43129;52.628;10.098;2023-05-20T05:38:31;12.50;67.10
57282;DHT22;43129;52.628;10.098;2023-05-20T05:41:01;12.60;67.10
57282;DHT22;43129;52.628;10.098;2023-05-20T05:43:27;12.70;66.90
57282;DHT22;43129;52.628;10.098;2023-05-20T05:45:55;12.70;67.20
57282;DHT22;43129;52.628;10.098;2023-05-20T05:48:24;12.70;67.20
57282;DHT22;43129;52.628;10.098;2023-05-20T05:50:52;12.80;67.40
57282;DHT22;43129;52.628;10.098;2023-05-20T05:53:17;12.80;67.50
57282;DHT22;43129;52.628;10.098;2023-05-20T05:55:45;12.90;67.50
57282;DHT22;43129;52.628;10.098;2023-05-20T05:58:13;12.80;67.40
57282;DHT22;43129;52.628;10.098;2023-05-20T06:00:39;12.90;67.50
57282;DHT22;43129;52.628;10.098;2023-05-20T06:03:07;12.90;67.50
57282;DHT22;43129;52.628;10.098;2023-05-20T06:05:32;12.90;67.30
57282;DHT22;43129;52.628;10.098;2023-05-20T06:08:00;13.00;67.80
57282;DHT22;43129;52.628;10.098;2023-05-20T06:10:26;13.00;67.60
57282;DHT22;43129;52.628;10.098;2023-05-20T06:12:52;13.10;67.40
57282;DHT22;43129;52.628;10.098;2023-05-20T06:15:20;13.20;67.40
57282;DHT22;43129;52.628;10.098;2023-05-20T06:17:48;13.30;67.20
57282;DHT22;43129;52.628;10.098;2023-05-20T06:20:18;13.30;67.00
57282;DHT22;43129;52.628;10.098;2023-05-20T06:22:44;13.50;67.10
57282;DHT22;43129;52.628;10.098;2023-05-20T06:25:12;13.60;66.90
57282;DHT22;43129;52.628;10.098;2023-05-20T06:27:38;13.60;66.40
57282;DHT22;43129;52.628;10.098;2023-05-20T06:30:06;13.70;66.60
57282;DHT22;43129;52.628;10.098;2023-05-20T06:32:32;13.80;67.10
57282;DHT22;43129;52.628;10.098;2023-05-20T06:35:00;14.10;66.40
57282;DHT22;43129;52.628;10.098;2023-05-20T06:37:26;14.20;65.70
57282;DHT22;43129;52.628;10.098;2023-05-20T06:39:52;14.30;65.70
57282;DHT22;43129;52.628;10.098;2023-05-20T06:42:20;14.30;65.50
57282;DHT22;43129;52.628;10.098;2023-05-20T06:44:46;14.40;65.30
57282;DHT22;43129;52.628;10.098;2023-05-20T06:47:16;14.50;65.00
57282;DHT22;43129;52.628;10.098;2023-05-20T06:49:42;14.40;65.50
57282;DHT22;43129;52.628;10.098;2023-05-20T06:52:10;14.40;66.10
57282;DHT22;43129;52.628;10.098;2023-05-20T06:54:37;14.40;65.90
57282;DHT22;43129;52.628;10.098;2023-05-20T06:57:08;14.50;65.80
57282;DHT22;43129;52.628;10.098;2023-05-20T06:59:36;14.60;65.10
57282;DHT22;43129;52.628;10.098;2023-05-20T07:02:02;14.70;65.10
57282;DHT22;43129;52.628;10.098;2023-05-20T07:04:28;14.90;65.10
57282;DHT22;43129;52.628;10.098;2023-05-20T07:06:54;14.80;63.70
57282;DHT22;43129;52.628;10.098;2023-05-20T07:09:24;14.90;63.30
57282;DHT22;43129;52.628;10.098;2023-05-20T07:11:52;15.10;62.80
57282;DHT22;43129;52.628;10.098;2023-05-20T07:14:21;15.60;62.10
57282;DHT22;43129;52.628;10.098;2023-05-20T07:16:46;16.00;60.00
57282;DHT22;43129;52.628;10.098;2023-05-20T07:19:14;16.20;58.30
57282;DHT22;43129;52.628;10.098;2023-05-20T07:21:44;16.70;57.70
57282;DHT22;43129;52.628;10.098;2023-05-20T07:24:14;16.80;56.80
57282;DHT22;43129;52.628;10.098;2023-05-20T07:26:42;17.20;56.20
57282;DHT22;43129;52.628;10.098;2023-05-20T07:29:08;17.30;55.70
57282;DHT22;43129;52.628;10.098;2023-05-20T07:31:38;17.60;55.00
57282;DHT22;43129;52.628;10.098;2023-05-20T07:34:03;17.70;54.00
57282;DHT22;43129;52.628;10.098;2023-05-20T07:36:31;18.00;54.10
57282;DHT22;43129;52.628;10.098;2023-05-20T07:38:59;18.20;52.20
57282;DHT22;43129;52.628;10.098;2023-05-20T07:41:25;18.20;52.00
57282;DHT22;43129;52.628;10.098;2023-05-20T07:43:53;18.50;51.70
57282;DHT22;43129;52.628;10.098;2023-05-20T07:46:25;18.50;51.30
57282;DHT22;43129;52.628;10.098;2023-05-20T07:48:52;18.00;51.70
57282;DHT22;43129;52.628;10.098;2023-05-20T07:51:18;18.20;51.90
57282;DHT22;43129;52.628;10.098;2023-05-20T07:53:43;18.50;51.40
57282;DHT22;43129;52.628;10.098;2023-05-20T07:56:09;18.20;51.30
57282;DHT22;43129;52.628;10.098;2023-05-20T07:58:34;17.90;51.00
57282;DHT22;43129;52.628;10.098;2023-05-20T08:01:03;17.80;51.70
57282;DHT22;43129;52.628;10.098;2023-05-20T08:03:29;17.50;52.20
57282;DHT22;43129;52.628;10.098;2023-05-20T08:05:54;17.90;53.00
57282;DHT22;43129;52.628;10.098;2023-05-20T08:08:22;18.00;51.40
57282;DHT22;43129;52.628;10.098;2023-05-20T08:10:50;18.10;51.40
57282;DHT22;43129;52.628;10.098;2023-05-20T08:13:19;18.20;51.00
57282;DHT22;43129;52.628;10.098;2023-05-20T08:15:45;18.20;50.50
57282;DHT22;43129;52.628;10.098;2023-05-20T08:18:13;17.80;50.60
57282;DHT22;43129;52.628;10.098;2023-05-20T08:20:39;17.60;51.50
57282;DHT22;43129;52.628;10.098;2023-05-20T08:23:07;17.60;52.00
57282;DHT22;43129;52.628;10.098;2023-05-20T08:25:33;17.90;52.00
57282;DHT22;43129;52.628;10.098;2023-05-20T08:28:03;17.50;51.60
57282;DHT22;43129;52.628;10.098;2023-05-20T08:30:30;17.80;51.80
57282;DHT22;43129;52.628;10.098;2023-05-20T08:32:56;17.70;51.50
57282;DHT22;43129;52.628;10.098;2023-05-20T08:35:24;17.60;51.80
57282;DHT22;43129;52.628;10.098;2023-05-20T08:37:52;17.40;51.90
57282;DHT22;43129;52.628;10.098;2023-05-20T08:40:22;17.40;52.90
57282;DHT22;43129;52.628;10.098;2023-05-20T08:42:50;17.60;53.30
57282;DHT22;43129;52.628;10.098;2023-05-20T08:45:18;17.70;53.10
57282;DHT22;43129;52.628;10.098;2023-05-20T08:47:45;18.30;52.30
57282;DHT22;43129;52.628;10.098;2023-05-20T08:50:12;19.10;49.70
57282;DHT22;43129;52.628;10.098;2023-05-20T08:52:47;19.50;48.20
57282;DHT22;43129;52.628;10.098;2023-05-20T08:55:18;19.10;48.50
57282;DHT22;43129;52.628;10.098;2023-05-20T08:57:50;18.60;49.50
57282;DHT22;43129;52.628;10.098;2023-05-20T09:00:16;18.60;50.80
57282;DHT22;43129;52.628;10.098;2023-05-20T09:02:44;18.50;50.70
57282;DHT22;43129;52.628;10.098;2023-05-20T09:05:12;18.60;51.10
57282;DHT22;43129;52.628;10.098;2023-05-20T09:07:39;18.80;50.60
57282;DHT22;43129;52.628;10.098;2023-05-20T09:10:09;19.20;50.40
57282;DHT22;43129;52.628;10.098;2023-05-20T09:12:40;19.10;50.30
57282;DHT22;43129;52.628;10.098;2023-05-20T09:15:08;19.00;50.50
57282;DHT22;43129;52.628;10.098;2023-05-20T09:17:35;19.20;50.90
57282;DHT22;43129;52.628;10.098;2023-05-20T09:20:05;18.90;50.00
57282;DHT22;43129;52.628;10.098;2023-05-20T09:22:30;18.80;50.70
57282;DHT22;43129;52.628;10.098;2023-05-20T09:24:59;18.10;51.40
57282;DHT22;43129;52.628;10.098;2023-05-20T09:27:27;17.80;52.70
57282;DHT22;43129;52.628;10.098;2023-05-20T09:29:53;17.70;53.30
57282;DHT22;43129;52.628;10.098;2023-05-20T09:32:20;17.50;53.80
57282;DHT22;43129;52.628;10.098;2023-05-20T09:34:48;17.20;54.20
57282;DHT22;43129;52.628;10.098;2023-05-20T09:37:17;17.00;55.10
57282;DHT22;43129;52.628;10.098;2023-05-20T09:40:04;16.80;55.70
57282;DHT22;43129;52.628;10.098;2023-05-20T09:42:33;16.60;56.50
57282;DHT22;43129;52.628;10.098;2023-05-20T09:45:00;16.50;57.10
57282;DHT22;43129;52.628;10.098;2023-05-20T09:47:29;16.40;57.50
57282;DHT22;43129;52.628;10.098;2023-05-20T09:49:57;16.30;57.80
57282;DHT22;43129;52.628;10.098;2023-05-20T09:52:23;16.30;58.00
57282;DHT22;43129;52.628;10.098;2023-05-20T09:54:55;16.20;58.30
57282;DHT22;43129;52.628;10.098;2023-05-20T09:57:22;16.10;58.60
57282;DHT22;43129;52.628;10.098;2023-05-20T09:59:49;16.00;59.10
57282;DHT22;43129;52.628;10.098;2023-05-20T10:02:16;16.00;59.30
57282;DHT22;43129;52.628;10.098;2023-05-20T10:04:44;16.10;59.30
57282;DHT22;43129;52.628;10.098;2023-05-20T10:07:33;16.10;59.20
57282;DHT22;43129;52.628;10.098;2023-05-20T10:13:44;16.60;58.70
57282;DHT22;43129;52.628;10.098;2023-05-20T10:21:28;17.40;57.00
57282;DHT22;43129;52.628;10.098;2023-05-20T10:23:53;17.90;55.10
57282;DHT22;43129;52.628;10.098;2023-05-20T10:26:40;18.20;53.90
57282;DHT22;43129;52.628;10.098;2023-05-20T10:29:18;18.50;54.10
57282;DHT22;43129;52.628;10.098;2023-05-20T10:31:48;18.70;52.90
57282;DHT22;43129;52.628;10.098;2023-05-20T10:34:17;18.90;52.20
57282;DHT22;43129;52.628;10.098;2023-05-20T10:37:01;18.70;52.30
57282;DHT22;43129;52.628;10.098;2023-05-20T10:39:28;18.30;53.40
57282;DHT22;43129;52.628;10.098;2023-05-20T10:42:10;18.10;53.60
57282;DHT22;43129;52.628;10.098;2023-05-20T10:44:46;17.70;54.70
57282;DHT22;43129;52.628;10.098;2023-05-20T10:47:12;17.50;55.50
57282;DHT22;43129;52.628;10.098;2023-05-20T10:49:45;17.50;56.20
57282;DHT22;43129;52.628;10.098;2023-05-20T10:52:12;17.60;55.70
57282;DHT22;43129;52.628;10.098;2023-05-20T10:54:57;17.70;55.40
57282;DHT22;43129;52.628;10.098;2023-05-20T10:57:26;18.20;54.50
57282;DHT22;43129;52.628;10.098;2023-05-20T10:59:55;18.10;54.30
57282;DHT22;43129;52.628;10.098;2023-05-20T11:02:25;17.80;54.60
57282;DHT22;43129;52.628;10.098;2023-05-20T11:04:54;17.60;55.30
57282;DHT22;43129;52.628;10.098;2023-05-20T11:07:28;17.90;55.50
57282;DHT22;43129;52.628;10.098;2023-05-20T11:09:57;18.40;54.80
57282;DHT22;43129;52.628;10.098;2023-05-20T11:12:26;18.50;53.30
57282;DHT22;43129;52.628;10.098;2023-05-20T11:14:52;18.70;53.20
57282;DHT22;43129;52.628;10.098;2023-05-20T11:17:19;18.60;53.70
57282;DHT22;43129;52.628;10.098;2023-05-20T11:19:52;18.60;53.70
57282;DHT22;43129;52.628;10.098;2023-05-20T11:22:21;18.70;53.10
57282;DHT22;43129;52.628;10.098;2023-05-20T11:24:48;18.50;52.70
57282;DHT22;43129;52.628;10.098;2023-05-20T11:27:14;18.30;53.60
57282;DHT22;43129;52.628;10.098;2023-05-20T11:29:42;18.20;54.30
57282;DHT22;43129;52.628;10.098;2023-05-20T11:32:11;18.20;53.90
57282;DHT22;43129;52.628;10.098;2023-05-20T11:34:39;18.00;54.40
57282;DHT22;43129;52.628;10.098;2023-05-20T11:37:08;18.00;55.40
57282;DHT22;43129;52.628;10.098;2023-05-20T11:39:34;17.90;55.30
57282;DHT22;43129;52.628;10.098;2023-05-20T11:42:02;17.80;55.60
57282;DHT22;43129;52.628;10.098;2023-05-20T11:44:28;17.60;56.30
57282;DHT22;43129;52.628;10.098;2023-05-20T11:47:00;17.50;56.70
57282;DHT22;43129;52.628;10.098;2023-05-20T11:49:28;17.50;57.30
57282;DHT22;43129;52.628;10.098;2023-05-20T11:51:57;17.40;58.00
57282;DHT22;43129;52.628;10.098;2023-05-20T11:54:23;17.30;57.20
57282;DHT22;43129;52.628;10.098;2023-05-20T11:56:49;17.40;57.70
57282;DHT22;43129;52.628;10.098;2023-05-20T11:59:15;17.50;57.00
57282;DHT22;43129;52.628;10.098;2023-05-20T12:01:43;17.70;56.30
57282;DHT22;43129;52.628;10.098;2023-05-20T12:04:10;18.00;56.00
57282;DHT22;43129;52.628;10.098;2023-05-20T12:06:37;17.90;55.50
57282;DHT22;43129;52.628;10.098;2023-05-20T12:09:04;18.00;56.00
57282;DHT22;43129;52.628;10.098;2023-05-20T12:11:35;18.10;55.60
57282;DHT22;43129;52.628;10.098;2023-05-20T12:14:03;18.40;55.00
57282;DHT22;43129;52.628;10.098;2023-05-20T12:16:30;18.60;54.20
57282;DHT22;43129;52.628;10.098;2023-05-20T12:18:59;18.80;54.10
57282;DHT22;43129;52.628;10.098;2023-05-20T12:21:28;19.00;53.50
57282;DHT22;43129;52.628;10.098;2023-05-20T12:23:57;18.60;53.60
57282;DHT22;43129;52.628;10.098;2023-05-20T12:26:29;18.80;54.40
57282;DHT22;43129;52.628;10.098;2023-05-20T12:28:58;18.60;53.90
57282;DHT22;43129;52.628;10.098;2023-05-20T12:31:26;18.60;54.10
57282;DHT22;43129;52.628;10.098;2023-05-20T12:33:52;18.60;54.20
57282;DHT22;43129;52.628;10.098;2023-05-20T12:36:17;18.60;54.10
57282;DHT22;43129;52.628;10.098;2023-05-20T12:38:46;18.70;54.40
57282;DHT22;43129;52.628;10.098;2023-05-20T12:41:11;18.50;54.20
57282;DHT22;43129;52.628;10.098;2023-05-20T12:43:39;18.80;54.00
57282;DHT22;43129;52.628;10.098;2023-05-20T12:46:05;19.40;53.00
57282;DHT22;43129;52.628;10.098;2023-05-20T12:48:31;19.70;51.90
57282;DHT22;43129;52.628;10.098;2023-05-20T12:50:56;19.70;51.40
57282;DHT22;43129;52.628;10.098;2023-05-20T12:53:22;19.60;51.80
57282;DHT22;43129;52.628;10.098;2023-05-20T12:55:50;19.60;51.90
57282;DHT22;43129;52.628;10.098;2023-05-20T12:58:16;19.70;51.90
57282;DHT22;43129;52.628;10.098;2023-05-20T13:00:43;19.60;51.70
57282;DHT22;43129;52.628;10.098;2023-05-20T13:03:09;19.60;51.90
57282;DHT22;43129;52.628;10.098;2023-05-20T13:05:37;19.70;52.40
57282;DHT22;43129;52.628;10.098;2023-05-20T13:08:08;18.90;52.70
57282;DHT22;43129;52.628;10.098;2023-05-20T13:10:35;18.60;54.30
57282;DHT22;43129;52.628;10.098;2023-05-20T13:13:00;18.50;54.80
57282;DHT22;43129;52.628;10.098;2023-05-20T13:15:26;18.60;55.20
57282;DHT22;43129;52.628;10.098;2023-05-20T13:18:03;18.50;55.10
57282;DHT22;43129;52.628;10.098;2023-05-20T13:20:33;18.30;55.50
57282;DHT22;43129;52.628;10.098;2023-05-20T13:22:59;18.50;55.40
57282;DHT22;43129;52.628;10.098;2023-05-20T13:25:25;18.40;55.60
57282;DHT22;43129;52.628;10.098;2023-05-20T13:27:51;18.40;55.90
57282;DHT22;43129;52.628;10.098;2023-05-20T13:30:18;18.70;54.90
57282;DHT22;43129;52.628;10.098;2023-05-20T13:32:46;18.90;54.60
57282;DHT22;43129;52.628;10.098;2023-05-20T13:35:12;19.20;54.00
57282;DHT22;43129;52.628;10.098;2023-05-20T13:37:38;19.30;53.10
57282;DHT22;43129;52.628;10.098;2023-05-20T13:40:07;19.50;52.90
57282;DHT22;43129;52.628;10.098;2023-05-20T13:42:38;20.00;52.00
57282;DHT22;43129;52.628;10.098;2023-05-20T13:45:04;20.00;51.40
57282;DHT22;43129;52.628;10.098;2023-05-20T13:47:30;19.70;51.90
57282;DHT22;43129;52.628;10.098;2023-05-20T13:49:56;19.80;52.40
57282;DHT22;43129;52.628;10.098;2023-05-20T13:52:24;19.30;53.10
57282;DHT22;43129;52.628;10.098;2023-05-20T13:54:50;19.30;53.70
57282;DHT22;43129;52.628;10.098;2023-05-20T13:57:15;19.00;54.30
57282;DHT22;43129;52.628;10.098;2023-05-20T13:59:43;18.90;54.50
57282;DHT22;43129;52.628;10.098;2023-05-20T14:02:09;18.90;54.60
57282;DHT22;43129;52.628;10.098;2023-05-20T14:04:35;19.10;54.60
57282;DHT22;43129;52.628;10.098;2023-05-20T14:07:07;19.20;54.10
57282;DHT22;43129;52.628;10.098;2023-05-20T14:09:32;19.20;54.20
57282;DHT22;43129;52.628;10.098;2023-05-20T14:12:04;18.80;54.40
57282;DHT22;43129;52.628;10.098;2023-05-20T14:14:30;18.70;55.40
57282;DHT22;43129;52.628;10.098;2023-05-20T14:16:59;18.70;55.80
57282;DHT22;43129;52.628;10.098;2023-05-20T14:19:25;18.70;56.10
57282;DHT22;43129;52.628;10.098;2023-05-20T14:21:51;18.70;55.50
57282;DHT22;43129;52.628;10.098;2023-05-20T14:24:19;18.90;55.60
57282;DHT22;43129;52.628;10.098;2023-05-20T14:26:44;19.50;54.90
57282;DHT22;43129;52.628;10.098;2023-05-20T14:29:12;20.80;51.60
57282;DHT22;43129;52.628;10.098;2023-05-20T14:31:43;21.60;49.10
57282;DHT22;43129;52.628;10.098;2023-05-20T14:34:09;21.50;48.30
57282;DHT22;43129;52.628;10.098;2023-05-20T14:36:34;21.70;48.30
57282;DHT22;43129;52.628;10.098;2023-05-20T14:39:00;22.00;47.10
57282;DHT22;43129;52.628;10.098;2023-05-20T14:41:28;22.50;46.70
57282;DHT22;43129;52.628;10.098;2023-05-20T14:43:56;23.20;44.20
57282;DHT22;43129;52.628;10.098;2023-05-20T14:46:24;24.10;43.00
57282;DHT22;43129;52.628;10.098;2023-05-20T14:48:49;24.60;41.30
57282;DHT22;43129;52.628;10.098;2023-05-20T14:51:17;24.70;40.40
57282;DHT22;43129;52.628;10.098;2023-05-20T14:53:43;24.30;40.60
57282;DHT22;43129;52.628;10.098;2023-05-20T14:56:09;23.30;43.50
57282;DHT22;43129;52.628;10.098;2023-05-20T14:58:34;22.50;44.80
57282;DHT22;43129;52.628;10.098;2023-05-20T15:01:02;22.20;46.50
57282;DHT22;43129;52.628;10.098;2023-05-20T15:03:32;22.00;46.80
57282;DHT22;43129;52.628;10.098;2023-05-20T15:05:58;22.50;46.00
57282;DHT22;43129;52.628;10.098;2023-05-20T15:08:26;23.00;45.40
57282;DHT22;43129;52.628;10.098;2023-05-20T15:10:52;23.00;44.80
57282;DHT22;43129;52.628;10.098;2023-05-20T15:13:18;22.70;45.10
57282;DHT22;43129;52.628;10.098;2023-05-20T15:15:44;22.50;46.00
57282;DHT22;43129;52.628;10.098;2023-05-20T15:18:12;21.80;47.50
57282;DHT22;43129;52.628;10.098;2023-05-20T15:20:39;20.90;49.30
57282;DHT22;43129;52.628;10.098;2023-05-20T15:23:05;20.20;51.40
57282;DHT22;43129;52.628;10.098;2023-05-20T15:25:33;19.50;53.30
57282;DHT22;43129;52.628;10.098;2023-05-20T15:27:59;19.10;55.10
57282;DHT22;43129;52.628;10.098;2023-05-20T15:30:29;18.90;55.80